sensor_id;sensor_type;location;lat;lon;timestamp;temperature;humidity
19652;DHT22;9974;52.146;14.668;2023-08-20T00:00:28;22.60;99.90
19652;DHT22;9974;52.146;14.668;2023-08-20T00:02:59;21.60;99.90
19652;DHT22;9974;52.146;14.668;2023-08-20T00:05:30;21.90;99.90
19652;DHT22;9974;52.146;14.668;2023-08-20T00:07:56;22.40;99.90
19652;DHT22;9974;52.146;14.668;2023-08-20T00:10:22;22.10;99.90
19652;DHT22;9974;52.146;14.668;2023-08-20T00:12:47;22.30;99.90
19652;DHT22;9974;52.146;14.668;2023-08-20T00:15:13;22.30;99.90
19652;DHT22;9974;52.146;14.668;2023-08-20T00:17:40;21.70;99.90
19652;DHT22;9974;52.146;14.668;2023-08-20T00:20:08;22.00;99.90
19652;DHT22;9974;52.146;14.668;2023-08-20T00:22:36;22.20;99.90
19652;DHT22;9974;52.146;14.668;2023-08-20T00:25:03;21.70;99.90
19652;DHT22;9974;52.146;14.668;2023-08-20T00:32:23;21.80;99.90
19652;DHT22;9974;52.146;14.668;2023-08-20T00:34:48;21.60;99.90
19652;DHT22;9974;52.146;14.668;2023-08-20T00:37:14;21.40;99.90
19652;DHT22;9974;52.146;14.668;2023-08-20T00:39:40;21.60;99.90
19652;DHT22;9974;52.146;14.668;2023-08-20T00:42:06;21.90;99.90
19652;DHT22;9974;52.146;14.668;2023-08-20T00:44:33;21.90;99.90
19652;DHT22;9974;52.146;14.668;2023-08-20T00:47:01;21.80;99.90
19652;DHT22;9974;52.146;14.668;2023-08-20T00:49:28;21.80;99.90
19652;DHT22;9974;52.146;14.668;2023-08-20T00:51:55;22.00;99.90
19652;DHT22;9974;52.146;14.668;2023-08-20T00:54:22;21.50;99.90
19652;DHT22;9974;52.146;14.668;2023-08-20T00:59:16;21.90;99.90
19652;DHT22;9974;52.146;14.668;2023-08-20T01:01:43;21.60;99.90
19652;DHT22;9974;52.146;14.668;2023-08-20T01:04:08;21.70;99.90
19652;DHT22;9974;52.146;14.668;2023-08-20T01:06:55;21.40;99.90
19652;DHT22;9974;52.146;14.668;2023-08-20T01:09:39;21.70;99.90
19652;DHT22;9974;52.146;14.668;2023-08-20T01:12:23;21.40;99.90
19652;DHT22;9974;52.146;14.668;2023-08-20T01:14:49;21.90;99.90
19652;DHT22;9974;52.146;14.668;2023-08-20T01:17:15;21.90;99.90
19652;DHT22;9974;52.146;14.668;2023-08-20T01:19:41;21.30;99.90
19652;DHT22;9974;52.146;14.668;2023-08-20T01:25:18;21.30;99.90
19652;DHT22;9974;52.146;14.668;2023-08-20T01:28:20;21.40;99.90
19652;DHT22;9974;52.146;14.668;2023-08-20T01:30:50;21.30;99.90
19652;DHT22;9974;52.146;14.668;2023-08-20T01:33:17;21.20;99.90
19652;DHT22;9974;52.146;14.668;2023-08-20T01:35:44;21.40;99.90
19652;DHT22;9974;52.146;14.668;2023-08-20T01:40:36;21.90;99.90
19652;DHT22;9974;52.146;14.668;2023-08-20T01:43:01;21.80;99.90
19652;DHT22;9974;52.146;14.668;2023-08-20T01:45:27;21.30;99.90
19652;DHT22;9974;52.146;14.668;2023-08-20T01:47:53;21.30;99.90
19652;DHT22;9974;52.146;14.668;2023-08-20T01:50:18;21.40;99.90
19652;DHT22;9974;52.146;14.668;2023-08-20T01:52:44;21.40;99.90
19652;DHT22;9974;52.146;14.668;2023-08-20T01:55:11;21.40;99.90
19652;DHT22;9974;52.146;14.668;2023-08-20T01:57:36;21.80;99.90
19652;DHT22;9974;52.146;14.668;2023-08-20T02:00:03;21.80;99.90
19652;DHT22;9974;52.146;14.668;2023-08-20T02:02:30;21.40;99.90
19652;DHT22;9974;52.146;14.668;2023-08-20T02:04:56;21.40;99.90
19652;DHT22;9974;52.146;14.668;2023-08-20T02:07:22;22.20;99.90
19652;DHT22;9974;52.146;14.668;2023-08-20T02:09:47;22.30;99.90
19652;DHT22;9974;52.146;14.668;2023-08-20T02:12:14;21.50;99.90
19652;DHT22;9974;52.146;14.668;2023-08-20T02:14:39;22.20;99.90
19652;DHT22;9974;52.146;14.668;2023-08-20T02:19:32;21.70;99.90
19652;DHT22;9974;52.146;14.668;2023-08-20T02:21:57;21.40;99.90
19652;DHT22;9974;52.146;14.668;2023-08-20T02:24:23;21.40;99.90
19652;DHT22;9974;52.146;14.668;2023-08-20T02:26:49;21.30;99.90
19652;DHT22;9974;52.146;14.668;2023-08-20T02:29:15;21.30;99.90
19652;DHT22;9974;52.146;14.668;2023-08-20T02:31:40;21.80;99.90
19652;DHT22;9974;52.146;14.668;2023-08-20T02:34:06;21.70;99.90
19652;DHT22;9974;52.146;14.668;2023-08-20T02:38:57;21.90;99.90
19652;DHT22;9974;52.146;14.668;2023-08-20T02:41:23;21.30;99.90
19652;DHT22;9974;52.146;14.668;2023-08-20T02:43:49;21.60;99.90
19652;DHT22;9974;52.146;14.668;2023-08-20T02:46:14;21.40;99.90
19652;DHT22;9974;52.146;14.668;2023-08-20T02:48:40;21.50;99.90
19652;DHT22;9974;52.146;14.668;2023-08-20T02:51:06;22.30;99.90
19652;DHT22;9974;52.146;14.668;2023-08-20T02:53:32;21.70;99.90
19652;DHT22;9974;52.146;14.668;2023-08-20T03:00:50;22.30;99.90
19652;DHT22;9974;52.146;14.668;2023-08-20T03:03:16;22.20;99.90
19652;DHT22;9974;52.146;14.668;2023-08-20T03:05:42;21.80;99.90
19652;DHT22;9974;52.146;14.668;2023-08-20T03:08:08;21.70;99.90
19652;DHT22;9974;52.146;14.668;2023-08-20T03:10:34;22.10;99.90
19652;DHT22;9974;52.146;14.668;2023-08-20T03:13:01;21.90;99.90
19652;DHT22;9974;52.146;14.668;2023-08-20T03:15:30;21.80;99.90
19652;DHT22;9974;52.146;14.668;2023-08-20T03:17:56;22.00;99.90
19652;DHT22;9974;52.146;14.668;2023-08-20T03:20:22;21.60;99.90
19652;DHT22;9974;52.146;14.668;2023-08-20T03:22:48;21.40;99.90
19652;DHT22;9974;52.146;14.668;2023-08-20T03:25:14;21.60;99.90
19652;DHT22;9974;52.146;14.668;2023-08-20T03:27:39;21.60;99.90
19652;DHT22;9974;52.146;14.668;2023-08-20T03:32:32;21.50;99.90
19652;DHT22;9974;52.146;14.668;2023-08-20T03:34:57;21.50;99.90
19652;DHT22;9974;52.146;14.668;2023-08-20T03:37:25;21.90;99.90
19652;DHT22;9974;52.146;14.668;2023-08-20T03:39:53;21.50;99.90
19652;DHT22;9974;52.146;14.668;2023-08-20T03:42:19;21.30;99.90
19652;DHT22;9974;52.146;14.668;2023-08-20T03:44:44;21.40;99.90
19652;DHT22;9974;52.146;14.668;2023-08-20T03:47:10;21.20;99.90
19652;DHT22;9974;52.146;14.668;2023-08-20T03:49:37;21.50;99.90
19652;DHT22;9974;52.146;14.668;2023-08-20T03:52:03;21.40;99.90
19652;DHT22;9974;52.146;14.668;2023-08-20T03:54:29;21.40;99.90
19652;DHT22;9974;52.146;14.668;2023-08-20T03:56:55;21.60;99.90
19652;DHT22;9974;52.146;14.668;2023-08-20T04:01:47;21.60;99.90
19652;DHT22;9974;52.146;14.668;2023-08-20T04:04:13;21.10;99.90
19652;DHT22;9974;52.146;14.668;2023-08-20T04:06:39;21.60;99.90
19652;DHT22;9974;52.146;14.668;2023-08-20T04:09:05;21.30;99.90
19652;DHT22;9974;52.146;14.668;2023-08-20T04:11:31;21.00;99.90
19652;DHT22;9974;52.146;14.668;2023-08-20T04:13:57;21.00;99.90
19652;DHT22;9974;52.146;14.668;2023-08-20T04:16:23;21.40;99.90
19652;DHT22;9974;52.146;14.668;2023-08-20T04:18:48;21.60;99.90
19652;DHT22;9974;52.146;14.668;2023-08-20T04:21:14;21.10;99.90
19652;DHT22;9974;52.146;14.668;2023-08-20T04:23:40;21.60;99.90
19652;DHT22;9974;52.146;14.668;2023-08-20T04:26:07;20.90;99.90
19652;DHT22;9974;52.146;14.668;2023-08-20T04:28:33;21.60;99.90
19652;DHT22;9974;52.146;14.668;2023-08-20T04:30:58;20.80;99.90
19652;DHT22;9974;52.146;14.668;2023-08-20T04:33:25;21.60;99.90
19652;DHT22;9974;52.146;14.668;2023-08-20T04:38:17;21.30;99.90
19652;DHT22;9974;52.146;14.668;2023-08-20T04:40:46;21.50;99.90
19652;DHT22;9974;52.146;14.668;2023-08-20T04:43:12;21.60;99.90
19652;DHT22;9974;52.146;14.668;2023-08-20T04:45:38;20.90;99.90
19652;DHT22;9974;52.146;14.668;2023-08-20T04:48:04;20.80;99.90
19652;DHT22;9974;52.146;14.668;2023-08-20T04:52:56;21.30;99.90
19652;DHT22;9974;52.146;14.668;2023-08-20T04:55:25;20.80;99.90
19652;DHT22;9974;52.146;14.668;2023-08-20T05:00:17;20.90;99.90
19652;DHT22;9974;52.146;14.668;2023-08-20T05:02:43;21.10;99.90
19652;DHT22;9974;52.146;14.668;2023-08-20T05:05:09;20.70;99.90
19652;DHT22;9974;52.146;14.668;2023-08-20T05:07:35;20.80;99.90
19652;DHT22;9974;52.146;14.668;2023-08-20T05:10:01;21.00;99.90
19652;DHT22;9974;52.146;14.668;2023-08-20T05:12:27;20.80;99.90
19652;DHT22;9974;52.146;14.668;2023-08-20T05:14:53;21.10;99.90
19652;DHT22;9974;52.146;14.668;2023-08-20T05:17:19;21.40;99.90
19652;DHT22;9974;52.146;14.668;2023-08-20T05:19:45;21.30;99.90
19652;DHT22;9974;52.146;14.668;2023-08-20T05:22:10;21.10;99.90
19652;DHT22;9974;52.146;14.668;2023-08-20T05:24:37;21.40;99.90
19652;DHT22;9974;52.146;14.668;2023-08-20T05:29:38;21.50;99.90
19652;DHT22;9974;52.146;14.668;2023-08-20T05:32:04;21.60;99.90
19652;DHT22;9974;52.146;14.668;2023-08-20T05:34:30;22.70;99.90
19652;DHT22;9974;52.146;14.668;2023-08-20T05:36:55;22.40;99.90
19652;DHT22;9974;52.146;14.668;2023-08-20T05:39:21;22.70;99.90
19652;DHT22;9974;52.146;14.668;2023-08-20T05:41:48;22.70;99.90
19652;DHT22;9974;52.146;14.668;2023-08-20T05:44:14;22.70;99.90
19652;DHT22;9974;52.146;14.668;2023-08-20T05:46:39;23.00;99.90
19652;DHT22;9974;52.146;14.668;2023-08-20T05:51:32;23.40;99.90
19652;DHT22;9974;52.146;14.668;2023-08-20T05:53:57;23.30;99.90
19652;DHT22;9974;52.146;14.668;2023-08-20T05:56:23;23.20;99.90
19652;DHT22;9974;52.146;14.668;2023-08-20T05:58:48;23.30;99.90
19652;DHT22;9974;52.146;14.668;2023-08-20T06:01:14;23.60;99.90
19652;DHT22;9974;52.146;14.668;2023-08-20T06:03:40;23.60;99.90
19652;DHT22;9974;52.146;14.668;2023-08-20T06:06:05;23.80;99.90
19652;DHT22;9974;52.146;14.668;2023-08-20T06:08:31;23.80;99.90
19652;DHT22;9974;52.146;14.668;2023-08-20T06:10:58;24.70;99.90
19652;DHT22;9974;52.146;14.668;2023-08-20T06:13:23;24.00;99.90
19652;DHT22;9974;52.146;14.668;2023-08-20T06:15:49;24.10;99.90
19652;DHT22;9974;52.146;14.668;2023-08-20T06:18:15;24.20;99.90
19652;DHT22;9974;52.146;14.668;2023-08-20T06:20:40;24.40;99.90
19652;DHT22;9974;52.146;14.668;2023-08-20T06:23:06;24.40;99.90
19652;DHT22;9974;52.146;14.668;2023-08-20T06:25:32;25.00;99.90
19652;DHT22;9974;52.146;14.668;2023-08-20T06:27:57;24.50;99.90
19652;DHT22;9974;52.146;14.668;2023-08-20T06:30:23;24.70;99.90
19652;DHT22;9974;52.146;14.668;2023-08-20T06:32:49;24.60;99.90
19652;DHT22;9974;52.146;14.668;2023-08-20T06:37:40;24.90;99.90
19652;DHT22;9974;52.146;14.668;2023-08-20T06:40:07;24.70;99.90
19652;DHT22;9974;52.146;14.668;2023-08-20T06:42:33;24.90;99.90
19652;DHT22;9974;52.146;14.668;2023-08-20T06:44:59;25.00;99.90
19652;DHT22;9974;52.146;14.668;2023-08-20T06:47:24;25.30;99.90
19652;DHT22;9974;52.146;14.668;2023-08-20T06:49:51;25.30;99.90
19652;DHT22;9974;52.146;14.668;2023-08-20T06:54:44;25.70;99.90
19652;DHT22;9974;52.146;14.668;2023-08-20T06:57:10;25.90;99.90
19652;DHT22;9974;52.146;14.668;2023-08-20T06:59:35;25.40;99.90
19652;DHT22;9974;52.146;14.668;2023-08-20T07:02:01;25.60;99.90
19652;DHT22;9974;52.146;14.668;2023-08-20T07:04:28;26.00;99.90
19652;DHT22;9974;52.146;14.668;2023-08-20T07:06:54;26.00;99.90
19652;DHT22;9974;52.146;14.668;2023-08-20T07:09:20;26.10;99.90
19652;DHT22;9974;52.146;14.668;2023-08-20T07:11:45;26.10;99.90
19652;DHT22;9974;52.146;14.668;2023-08-20T07:14:11;26.20;99.90
19652;DHT22;9974;52.146;14.668;2023-08-20T07:16:37;26.40;99.90
19652;DHT22;9974;52.146;14.668;2023-08-20T07:19:02;26.60;99.90
19652;DHT22;9974;52.146;14.668;2023-08-20T07:21:28;26.80;99.90
19652;DHT22;9974;52.146;14.668;2023-08-20T07:23:54;26.80;99.90
19652;DHT22;9974;52.146;14.668;2023-08-20T07:26:19;26.90;99.90
19652;DHT22;9974;52.146;14.668;2023-08-20T07:28:45;26.80;99.90
19652;DHT22;9974;52.146;14.668;2023-08-20T07:31:24;27.40;99.90
19652;DHT22;9974;52.146;14.668;2023-08-20T07:33:51;27.10;99.90
19652;DHT22;9974;52.146;14.668;2023-08-20T07:36:18;27.20;99.90
19652;DHT22;9974;52.146;14.668;2023-08-20T07:38:44;27.30;99.90
19652;DHT22;9974;52.146;14.668;2023-08-20T07:41:11;27.40;99.90
19652;DHT22;9974;52.146;14.668;2023-08-20T07:43:38;27.00;99.90
19652;DHT22;9974;52.146;14.668;2023-08-20T07:46:04;27.40;99.90
19652;DHT22;9974;52.146;14.668;2023-08-20T07:48:31;27.50;99.90
19652;DHT22;9974;52.146;14.668;2023-08-20T07:50:56;27.80;99.90
19652;DHT22;9974;52.146;14.668;2023-08-20T07:53:22;28.00;99.90
19652;DHT22;9974;52.146;14.668;2023-08-20T07:55:48;28.50;99.90
19652;DHT22;9974;52.146;14.668;2023-08-20T07:58:14;28.30;99.90
19652;DHT22;9974;52.146;14.668;2023-08-20T08:00:40;28.90;99.90
19652;DHT22;9974;52.146;14.668;2023-08-20T08:03:05;29.00;99.90
19652;DHT22;9974;52.146;14.668;2023-08-20T08:05:31;28.80;99.90
19652;DHT22;9974;52.146;14.668;2023-08-20T08:10:23;28.90;99.90
19652;DHT22;9974;52.146;14.668;2023-08-20T08:12:49;29.00;99.90
19652;DHT22;9974;52.146;14.668;2023-08-20T08:15:14;28.60;99.90
19652;DHT22;9974;52.146;14.668;2023-08-20T08:17:40;29.00;99.90
19652;DHT22;9974;52.146;14.668;2023-08-20T08:20:06;29.00;99.90
19652;DHT22;9974;52.146;14.668;2023-08-20T08:22:32;29.30;99.90
19652;DHT22;9974;52.146;14.668;2023-08-20T08:24:57;29.40;99.90
19652;DHT22;9974;52.146;14.668;2023-08-20T08:27:23;28.90;99.90
19652;DHT22;9974;52.146;14.668;2023-08-20T08:29:50;28.70;99.90
19652;DHT22;9974;52.146;14.668;2023-08-20T08:32:16;28.40;99.90
19652;DHT22;9974;52.146;14.668;2023-08-20T08:34:42;28.30;99.90
19652;DHT22;9974;52.146;14.668;2023-08-20T08:37:08;28.10;99.90
19652;DHT22;9974;52.146;14.668;2023-08-20T08:39:33;28.80;99.90
19652;DHT22;9974;52.146;14.668;2023-08-20T08:42:02;29.60;99.90
19652;DHT22;9974;52.146;14.668;2023-08-20T08:44:31;30.50;99.90
19652;DHT22;9974;52.146;14.668;2023-08-20T08:47:01;31.20;99.90
19652;DHT22;9974;52.146;14.668;2023-08-20T08:49:28;31.30;99.90
19652;DHT22;9974;52.146;14.668;2023-08-20T08:51:57;31.70;99.90
19652;DHT22;9974;52.146;14.668;2023-08-20T08:54:23;31.50;99.90
19652;DHT22;9974;52.146;14.668;2023-08-20T08:56:50;32.00;99.90
19652;DHT22;9974;52.146;14.668;2023-08-20T08:59:16;31.30;99.90
19652;DHT22;9974;52.146;14.668;2023-08-20T09:01:42;31.10;99.90
19652;DHT22;9974;52.146;14.668;2023-08-20T09:04:08;30.80;99.90
19652;DHT22;9974;52.146;14.668;2023-08-20T09:06:55;31.20;99.90
19652;DHT22;9974;52.146;14.668;2023-08-20T09:09:21;31.40;99.90
19652;DHT22;9974;52.146;14.668;2023-08-20T09:11:47;31.20;99.90
19652;DHT22;9974;52.146;14.668;2023-08-20T09:14:32;31.90;99.90
19652;DHT22;9974;52.146;14.668;2023-08-20T09:16:59;31.40;99.90
19652;DHT22;9974;52.146;14.668;2023-08-20T09:19:30;31.60;99.90
19652;DHT22;9974;52.146;14.668;2023-08-20T09:21:58;31.90;99.90
19652;DHT22;9974;52.146;14.668;2023-08-20T09:24:26;31.70;99.90
19652;DHT22;9974;52.146;14.668;2023-08-20T09:26:58;31.50;99.90
19652;DHT22;9974;52.146;14.668;2023-08-20T09:29:26;31.60;99.90
19652;DHT22;9974;52.146;14.668;2023-08-20T09:32:00;31.10;99.90
19652;DHT22;9974;52.146;14.668;2023-08-20T09:34:36;31.70;99.90
19652;DHT22;9974;52.146;14.668;2023-08-20T09:39:29;31.90;99.90
19652;DHT22;9974;52.146;14.668;2023-08-20T09:41:55;31.40;99.90
19652;DHT22;9974;52.146;14.668;2023-08-20T09:44:23;32.20;99.90
19652;DHT22;9974;52.146;14.668;2023-08-20T09:46:50;31.80;99.90
19652;DHT22;9974;52.146;14.668;2023-08-20T09:49:17;32.70;99.90
19652;DHT22;9974;52.146;14.668;2023-08-20T09:51:48;33.20;99.90
19652;DHT22;9974;52.146;14.668;2023-08-20T09:54:23;32.80;99.90
19652;DHT22;9974;52.146;14.668;2023-08-20T09:56:55;32.70;99.90
19652;DHT22;9974;52.146;14.668;2023-08-20T09:59:24;32.90;99.90
19652;DHT22;9974;52.146;14.668;2023-08-20T10:01:50;32.10;99.90
19652;DHT22;9974;52.146;14.668;2023-08-20T10:04:17;32.60;99.90
19652;DHT22;9974;52.146;14.668;2023-08-20T10:06:44;32.30;99.90
19652;DHT22;9974;52.146;14.668;2023-08-20T10:09:09;32.50;99.90
19652;DHT22;9974;52.146;14.668;2023-08-20T10:11:35;33.10;99.90
19652;DHT22;9974;52.146;14.668;2023-08-20T10:14:02;33.00;99.90
19652;DHT22;9974;52.146;14.668;2023-08-20T10:18:54;32.90;99.90
19652;DHT22;9974;52.146;14.668;2023-08-20T10:21:24;33.60;99.90
19652;DHT22;9974;52.146;14.668;2023-08-20T10:23:50;32.80;99.90
19652;DHT22;9974;52.146;14.668;2023-08-20T10:26:16;33.30;99.90
19652;DHT22;9974;52.146;14.668;2023-08-20T10:28:46;33.30;99.90
19652;DHT22;9974;52.146;14.668;2023-08-20T10:31:13;33.40;99.90
19652;DHT22;9974;52.146;14.668;2023-08-20T10:33:49;33.30;99.90
19652;DHT22;9974;52.146;14.668;2023-08-20T10:36:17;33.10;99.90
19652;DHT22;9974;52.146;14.668;2023-08-20T10:38:48;33.00;99.90
19652;DHT22;9974;52.146;14.668;2023-08-20T10:41:15;32.90;99.90
19652;DHT22;9974;52.146;14.668;2023-08-20T10:43:47;32.30;99.90
19652;DHT22;9974;52.146;14.668;2023-08-20T10:46:18;31.60;99.90
19652;DHT22;9974;52.146;14.668;2023-08-20T10:49:01;31.80;99.90
19652;DHT22;9974;52.146;14.668;2023-08-20T10:51:37;31.10;99.90
19652;DHT22;9974;52.146;14.668;2023-08-20T10:54:05;30.80;99.90
19652;DHT22;9974;52.146;14.668;2023-08-20T10:56:44;31.40;99.90
19652;DHT22;9974;52.146;14.668;2023-08-20T10:59:22;30.90;99.90
19652;DHT22;9974;52.146;14.668;2023-08-20T11:01:53;31.00;99.90
19652;DHT22;9974;52.146;14.668;2023-08-20T11:04:22;30.90;99.90
19652;DHT22;9974;52.146;14.668;2023-08-20T11:06:56;30.80;99.90
19652;DHT22;9974;52.146;14.668;2023-08-20T11:09:24;31.00;99.90
19652;DHT22;9974;52.146;14.668;2023-08-20T11:11:51;30.70;99.90
19652;DHT22;9974;52.146;14.668;2023-08-20T11:14:18;30.60;99.90
19652;DHT22;9974;52.146;14.668;2023-08-20T11:16:45;30.50;99.90
19652;DHT22;9974;52.146;14.668;2023-08-20T11:19:12;30.20;99.90
19652;DHT22;9974;52.146;14.668;2023-08-20T11:21:39;30.20;99.90
19652;DHT22;9974;52.146;14.668;2023-08-20T11:24:07;30.30;99.90
19652;DHT22;9974;52.146;14.668;2023-08-20T11:26:34;30.40;99.90
19652;DHT22;9974;52.146;14.668;2023-08-20T11:29:11;30.10;99.90
19652;DHT22;9974;52.146;14.668;2023-08-20T11:31:47;30.40;99.90
19652;DHT22;9974;52.146;14.668;2023-08-20T11:34:13;30.50;99.90
19652;DHT22;9974;52.146;14.668;2023-08-20T11:36:39;30.60;99.90
19652;DHT22;9974;52.146;14.668;2023-08-20T11:39:06;30.60;99.90
19652;DHT22;9974;52.146;14.668;2023-08-20T11:41:36;31.10;99.90
19652;DHT22;9974;52.146;14.668;2023-08-20T11:44:02;30.80;99.90
19652;DHT22;9974;52.146;14.668;2023-08-20T11:46:28;30.70;99.90
19652;DHT22;9974;52.146;14.668;2023-08-20T11:49:05;30.80;99.90
19652;DHT22;9974;52.146;14.668;2023-08-20T11:54:04;31.90;99.90
19652;DHT22;9974;52.146;14.668;2023-08-20T11:56:32;32.10;99.90
19652;DHT22;9974;52.146;14.668;2023-08-20T11:58:59;32.70;99.90
19652;DHT22;9974;52.146;14.668;2023-08-20T12:04:09;33.20;99.90
19652;DHT22;9974;52.146;14.668;2023-08-20T12:06:36;34.10;99.90
19652;DHT22;9974;52.146;14.668;2023-08-20T12:09:18;34.20;99.90
19652;DHT22;9974;52.146;14.668;2023-08-20T12:11:52;34.60;99.90
19652;DHT22;9974;52.146;14.668;2023-08-20T12:14:21;35.30;99.90
19652;DHT22;9974;52.146;14.668;2023-08-20T12:16:47;35.60;99.90
19652;DHT22;9974;52.146;14.668;2023-08-20T12:19:13;35.00;99.90
19652;DHT22;9974;52.146;14.668;2023-08-20T12:21:40;34.90;99.90
19652;DHT22;9974;52.146;14.668;2023-08-20T12:24:08;34.90;99.90
19652;DHT22;9974;52.146;14.668;2023-08-20T12:26:33;35.20;99.90
19652;DHT22;9974;52.146;14.668;2023-08-20T12:28:59;36.20;99.90
19652;DHT22;9974;52.146;14.668;2023-08-20T12:31:25;36.30;99.90
19652;DHT22;9974;52.146;14.668;2023-08-20T12:33:50;36.00;99.90
19652;DHT22;9974;52.146;14.668;2023-08-20T12:36:16;36.40;99.90
19652;DHT22;9974;52.146;14.668;2023-08-20T12:38:42;36.60;99.90
19652;DHT22;9974;52.146;14.668;2023-08-20T12:41:07;36.30;99.90
19652;DHT22;9974;52.146;14.668;2023-08-20T12:43:33;36.70;99.90
19652;DHT22;9974;52.146;14.668;2023-08-20T12:45:59;35.80;99.90
19652;DHT22;9974;52.146;14.668;2023-08-20T12:48:24;35.60;99.90
19652;DHT22;9974;52.146;14.668;2023-08-20T12:50:50;35.70;99.90
19652;DHT22;9974;52.146;14.668;2023-08-20T12:53:16;36.40;99.90
19652;DHT22;9974;52.146;14.668;2023-08-20T12:58:07;36.20;99.90
19652;DHT22;9974;52.146;14.668;2023-08-20T13:00:33;36.30;99.60
19652;DHT22;9974;52.146;14.668;2023-08-20T13:02:59;36.50;98.80
19652;DHT22;9974;52.146;14.668;2023-08-20T13:05:26;36.10;98.10
19652;DHT22;9974;52.146;14.668;2023-08-20T13:07:52;35.90;98.30
19652;DHT22;9974;52.146;14.668;2023-08-20T13:10:19;36.10;96.90
19652;DHT22;9974;52.146;14.668;2023-08-20T13:12:48;36.10;96.60
19652;DHT22;9974;52.146;14.668;2023-08-20T13:15:19;35.60;96.70
19652;DHT22;9974;52.146;14.668;2023-08-20T13:17:47;36.00;96.10
19652;DHT22;9974;52.146;14.668;2023-08-20T13:20:15;35.40;96.00
19652;DHT22;9974;52.146;14.668;2023-08-20T13:22:49;35.20;96.80
19652;DHT22;9974;52.146;14.668;2023-08-20T13:25:17;34.50;97.30
19652;DHT22;9974;52.146;14.668;2023-08-20T13:27:42;34.90;98.30
19652;DHT22;9974;52.146;14.668;2023-08-20T13:30:09;35.20;98.30
19652;DHT22;9974;52.146;14.668;2023-08-20T13:32:36;34.60;98.70
19652;DHT22;9974;52.146;14.668;2023-08-20T13:35:02;34.70;98.30
19652;DHT22;9974;52.146;14.668;2023-08-20T13:37:31;34.60;97.20
19652;DHT22;9974;52.146;14.668;2023-08-20T13:39:58;34.50;99.20
19652;DHT22;9974;52.146;14.668;2023-08-20T13:42:24;34.40;98.80
19652;DHT22;9974;52.146;14.668;2023-08-20T13:47:16;33.70;99.80
19652;DHT22;9974;52.146;14.668;2023-08-20T13:49:41;33.50;99.10
19652;DHT22;9974;52.146;14.668;2023-08-20T13:52:07;34.40;99.50
19652;DHT22;9974;52.146;14.668;2023-08-20T13:54:35;34.10;99.00
19652;DHT22;9974;52.146;14.668;2023-08-20T13:57:01;33.10;99.50
19652;DHT22;9974;52.146;14.668;2023-08-20T13:59:29;33.60;99.20
19652;DHT22;9974;52.146;14.668;2023-08-20T14:01:55;33.80;99.90
19652;DHT22;9974;52.146;14.668;2023-08-20T14:04:20;33.40;99.90
19652;DHT22;9974;52.146;14.668;2023-08-20T14:06:46;33.30;99.90
19652;DHT22;9974;52.146;14.668;2023-08-20T14:09:12;33.40;99.70
19652;DHT22;9974;52.146;14.668;2023-08-20T14:14:03;33.20;99.90
19652;DHT22;9974;52.146;14.668;2023-08-20T14:16:29;33.40;99.90
19652;DHT22;9974;52.146;14.668;2023-08-20T14:18:55;33.20;99.90
19652;DHT22;9974;52.146;14.668;2023-08-20T14:21:20;33.40;99.90
19652;DHT22;9974;52.146;14.668;2023-08-20T14:23:46;33.20;99.90
19652;DHT22;9974;52.146;14.668;2023-08-20T14:26:12;33.30;99.90
19652;DHT22;9974;52.146;14.668;2023-08-20T14:28:37;32.80;99.90
19652;DHT22;9974;52.146;14.668;2023-08-20T14:31:04;33.10;99.90
19652;DHT22;9974;52.146;14.668;2023-08-20T14:33:30;33.40;99.90
19652;DHT22;9974;52.146;14.668;2023-08-20T14:35:56;33.00;99.90
19652;DHT22;9974;52.146;14.668;2023-08-20T14:38:22;33.00;99.90
19652;DHT22;9974;52.146;14.668;2023-08-20T14:40:47;33.20;99.90
19652;DHT22;9974;52.146;14.668;2023-08-20T14:43:13;33.00;99.90
19652;DHT22;9974;52.146;14.668;2023-08-20T14:45:39;32.90;99.90
19652;DHT22;9974;52.146;14.668;2023-08-20T14:48:04;32.60;99.90
19652;DHT22;9974;52.146;14.668;2023-08-20T14:50:31;32.90;99.90
19652;DHT22;9974;52.146;14.668;2023-08-20T14:52:57;33.00;99.90
19652;DHT22;9974;52.146;14.668;2023-08-20T14:55:23;32.40;99.90
19652;DHT22;9974;52.146;14.668;2023-08-20T14:57:49;32.80;99.90
19652;DHT22;9974;52.146;14.668;2023-08-20T15:00:15;32.50;99.90
19652;DHT22;9974;52.146;14.668;2023-08-20T15:02:43;32.30;99.90
19652;DHT22;9974;52.146;14.668;2023-08-20T15:05:10;32.30;99.90
19652;DHT22;9974;52.146;14.668;2023-08-20T15:07:36;32.20;99.90
19652;DHT22;9974;52.146;14.668;2023-08-20T15:10:03;31.90;99.90
19652;DHT22;9974;52.146;14.668;2023-08-20T15:12:33;32.20;99.90
19652;DHT22;9974;52.146;14.668;2023-08-20T15:15:03;32.00;99.90
19652;DHT22;9974;52.146;14.668;2023-08-20T15:17:30;31.90;99.90
19652;DHT22;9974;52.146;14.668;2023-08-20T15:19:57;31.80;99.90
19652;DHT22;9974;52.146;14.668;2023-08-20T15:22:42;31.60;99.90
19652;DHT22;9974;52.146;14.668;2023-08-20T15:25:08;31.50;99.90
19652;DHT22;9974;52.146;14.668;2023-08-20T15:27:36;31.50;99.90
19652;DHT22;9974;52.146;14.668;2023-08-20T15:30:03;31.80;99.90
19652;DHT22;9974;52.146;14.668;2023-08-20T15:32:29;31.90;99.90
19652;DHT22;9974;52.146;14.668;2023-08-20T15:34:55;31.80;99.90
19652;DHT22;9974;52.146;14.668;2023-08-20T15:39:47;32.30;99.90
19652;DHT22;9974;52.146;14.668;2023-08-20T15:42:13;31.50;99.90
19652;DHT22;9974;52.146;14.668;2023-08-20T15:44:39;31.90;99.90
19652;DHT22;9974;52.146;14.668;2023-08-20T15:47:06;32.10;99.90
19652;DHT22;9974;52.146;14.668;2023-08-20T15:49:32;31.80;99.90
19652;DHT22;9974;52.146;14.668;2023-08-20T15:51:59;32.10;99.90
19652;DHT22;9974;52.146;14.668;2023-08-20T15:54:24;32.10;99.90
19652;DHT22;9974;52.146;14.668;2023-08-20T15:56:53;31.40;99.90
19652;DHT22;9974;52.146;14.668;2023-08-20T15:59:19;31.90;99.90
19652;DHT22;9974;52.146;14.668;2023-08-20T16:01:45;31.60;99.90
19652;DHT22;9974;52.146;14.668;2023-08-20T16:04:12;31.60;99.90
19652;DHT22;9974;52.146;14.668;2023-08-20T16:06:38;31.30;99.90
19652;DHT22;9974;52.146;14.668;2023-08-20T16:11:31;30.90;99.90
19652;DHT22;9974;52.146;14.668;2023-08-20T16:13:57;30.90;99.90
19652;DHT22;9974;52.146;14.668;2023-08-20T16:16:22;30.80;99.90
19652;DHT22;9974;52.146;14.668;2023-08-20T16:18:48;31.00;99.90
19652;DHT22;9974;52.146;14.668;2023-08-20T16:21:14;30.80;99.90
19652;DHT22;9974;52.146;14.668;2023-08-20T16:23:39;30.90;99.90
19652;DHT22;9974;52.146;14.668;2023-08-20T16:26:05;31.00;99.90
19652;DHT22;9974;52.146;14.668;2023-08-20T16:28:31;31.30;99.90
19652;DHT22;9974;52.146;14.668;2023-08-20T16:30:57;30.90;99.90
19652;DHT22;9974;52.146;14.668;2023-08-20T16:33:23;30.90;99.90
19652;DHT22;9974;52.146;14.668;2023-08-20T16:35:50;30.80;99.90
19652;DHT22;9974;52.146;14.668;2023-08-20T16:38:16;30.80;99.90